DAL1321 KDTW-KMCI
Flight info
| Callsign | DAL1321 |
|---|---|
| Flight time | 1h 38m |
| Altitude | 38000 |
| Route | KAYLN3 SMUUV EDENS BULET RUDDH3 |
| Aircraft | A20N/M-SDE2E3FGHIRWXY/LB1 |
Departure
| Time | 2026-05-07 14:57 |
|---|---|
| Airport | Detroit Metropolitan Wayne County Airport (KDTW) |
Arrival
| Time | 2026-05-07 16:35 |
|---|---|
| Airport | Kansas City International Airport (KMCI) |
| Time | Latitude | Longitude | Altitude | Speed | Heading |
|---|---|---|---|---|---|
| 2026-05-07 14:19 | 42.22581 | -83.34902 | 650 ft | 0 kts | 118° |
| 2026-05-07 14:47 | 42.22583 | -83.34908 | 649 ft | 1 kts | 118° |
| 2026-05-07 14:47 | 42.22586 | -83.34915 | 649 ft | 0 kts | 118° |
| 2026-05-07 14:47 | 42.22588 | -83.34920 | 651 ft | 2 kts | 119° |
| 2026-05-07 14:47 | 42.22595 | -83.34938 | 651 ft | 2 kts | 113° |
| 2026-05-07 14:48 | 42.22599 | -83.34950 | 651 ft | 2 kts | 107° |
| 2026-05-07 14:48 | 42.22602 | -83.34971 | 649 ft | 2 kts | 91° |
| 2026-05-07 14:48 | 42.22601 | -83.34991 | 653 ft | 2 kts | 67° |
| 2026-05-07 14:48 | 42.22594 | -83.35008 | 650 ft | 2 kts | 40° |
| 2026-05-07 14:51 | 42.22595 | -83.35007 | 650 ft | 0 kts | 34° |
| 2026-05-07 14:51 | 42.22607 | -83.35000 | 652 ft | 3 kts | 19° |
| 2026-05-07 14:51 | 42.22641 | -83.35003 | 649 ft | 7 kts | 341° |
| 2026-05-07 14:52 | 42.22693 | -83.35020 | 649 ft | 9 kts | 2° |
| 2026-05-07 14:52 | 42.22751 | -83.34993 | 649 ft | 7 kts | 25° |
| 2026-05-07 14:52 | 42.22806 | -83.34958 | 649 ft | 10 kts | 25° |
| 2026-05-07 14:52 | 42.22860 | -83.34917 | 649 ft | 7 kts | 31° |
| 2026-05-07 14:53 | 42.22908 | -83.34879 | 651 ft | 9 kts | 28° |
| 2026-05-07 14:53 | 42.22959 | -83.34847 | 650 ft | 8 kts | 23° |
| 2026-05-07 14:53 | 42.23020 | -83.34834 | 649 ft | 10 kts | 356° |
| 2026-05-07 14:53 | 42.23058 | -83.34881 | 650 ft | 0 kts | 296° |
| 2026-05-07 14:55 | 42.23061 | -83.34889 | 650 ft | 2 kts | 296° |
| 2026-05-07 14:55 | 42.23073 | -83.34920 | 650 ft | 5 kts | 296° |
| 2026-05-07 14:56 | 42.23085 | -83.34977 | 650 ft | 8 kts | 271° |
| 2026-05-07 14:56 | 42.23057 | -83.35048 | 652 ft | 9 kts | 222° |
| 2026-05-07 14:56 | 42.22986 | -83.35101 | 650 ft | 25 kts | 208° |
| 2026-05-07 14:56 | 42.22624 | -83.35367 | 652 ft | 92 kts | 208° |
| 2026-05-07 14:57 | 42.21896 | -83.35901 | 647 ft | 144 kts | 208° |
| 2026-05-07 14:57 | 42.20914 | -83.36611 | 822 ft | 168 kts | 210° |
| 2026-05-07 14:57 | 42.19911 | -83.37349 | 1467 ft | 160 kts | 212° |
| 2026-05-07 14:57 | 42.18978 | -83.38121 | 2165 ft | 155 kts | 222° |
| 2026-05-07 14:58 | 42.18202 | -83.39154 | 2723 ft | 164 kts | 235° |
| 2026-05-07 14:58 | 42.17492 | -83.40449 | 3182 ft | 181 kts | 236° |
| 2026-05-07 14:58 | 42.16696 | -83.41896 | 3537 ft | 205 kts | 236° |
| 2026-05-07 14:58 | 42.15788 | -83.43513 | 4115 ft | 226 kts | 235° |
| 2026-05-07 14:59 | 42.14782 | -83.45259 | 4816 ft | 245 kts | 234° |
| 2026-05-07 14:59 | 42.13780 | -83.47165 | 5641 ft | 252 kts | 247° |
| 2026-05-07 14:59 | 42.13440 | -83.49473 | 6562 ft | 256 kts | 275° |
| 2026-05-07 14:59 | 42.13930 | -83.51732 | 7570 ft | 256 kts | 294° |
| 2026-05-07 15:00 | 42.14723 | -83.53878 | 8644 ft | 257 kts | 296° |
| 2026-05-07 15:00 | 42.15563 | -83.56008 | 9700 ft | 258 kts | 296° |
| 2026-05-07 15:00 | 42.16402 | -83.58169 | 10527 ft | 267 kts | 295° |
| 2026-05-07 15:00 | 42.17273 | -83.60490 | 10922 ft | 289 kts | 295° |
| 2026-05-07 15:01 | 42.18193 | -83.63004 | 11329 ft | 307 kts | 294° |
| 2026-05-07 15:01 | 42.19134 | -83.65606 | 12168 ft | 310 kts | 294° |
| 2026-05-07 15:01 | 42.20080 | -83.68226 | 13093 ft | 312 kts | 293° |
| 2026-05-07 15:01 | 42.21033 | -83.70871 | 13961 ft | 315 kts | 293° |
| 2026-05-07 15:02 | 42.21980 | -83.73505 | 14734 ft | 318 kts | 292° |
| 2026-05-07 15:02 | 42.22947 | -83.76199 | 15515 ft | 320 kts | 292° |
| 2026-05-07 15:02 | 42.23921 | -83.78915 | 16300 ft | 323 kts | 292° |
| 2026-05-07 15:02 | 42.24906 | -83.81663 | 17053 ft | 327 kts | 292° |
| 2026-05-07 15:03 | 42.25899 | -83.84439 | 17791 ft | 330 kts | 292° |
| 2026-05-07 15:03 | 42.26904 | -83.87247 | 18513 ft | 333 kts | 292° |
| 2026-05-07 15:03 | 42.27573 | -83.89118 | 18938 ft | 335 kts | 292° |
| 2026-05-07 15:03 | 42.28933 | -83.92927 | 19791 ft | 339 kts | 291° |
| 2026-05-07 15:04 | 42.29960 | -83.95808 | 20437 ft | 342 kts | 291° |
| 2026-05-07 15:04 | 42.30644 | -83.97727 | 20852 ft | 344 kts | 291° |
| 2026-05-07 15:04 | 42.31685 | -84.00651 | 21490 ft | 347 kts | 291° |
| 2026-05-07 15:04 | 42.33075 | -84.04561 | 22326 ft | 350 kts | 291° |
| 2026-05-07 15:05 | 42.34135 | -84.07544 | 22949 ft | 353 kts | 291° |
| 2026-05-07 15:05 | 42.35202 | -84.10552 | 23557 ft | 356 kts | 291° |
| 2026-05-07 15:05 | 42.35912 | -84.12557 | 23897 ft | 358 kts | 291° |
| 2026-05-07 15:05 | 42.36988 | -84.15591 | 24478 ft | 358 kts | 290° |
| 2026-05-07 15:06 | 42.38064 | -84.18628 | 25042 ft | 358 kts | 290° |
| 2026-05-07 15:06 | 42.39419 | -84.22464 | 25718 ft | 360 kts | 290° |
| 2026-05-07 15:06 | 42.40157 | -84.24555 | 26081 ft | 360 kts | 289° |
| 2026-05-07 15:06 | 42.41576 | -84.28619 | 26772 ft | 360 kts | 287° |
| 2026-05-07 15:07 | 42.42184 | -84.30751 | 27090 ft | 359 kts | 283° |
| 2026-05-07 15:07 | 42.42992 | -84.35065 | 27712 ft | 356 kts | 276° |
| 2026-05-07 15:07 | 42.43209 | -84.37262 | 28036 ft | 355 kts | 272° |
| 2026-05-07 15:07 | 42.43326 | -84.40596 | 28491 ft | 355 kts | 269° |
| 2026-05-07 15:08 | 42.43409 | -84.43938 | 28935 ft | 356 kts | 269° |
| 2026-05-07 15:08 | 42.43500 | -84.47293 | 29368 ft | 357 kts | 269° |
| 2026-05-07 15:08 | 42.43592 | -84.50658 | 29785 ft | 359 kts | 269° |
| 2026-05-07 15:08 | 42.43681 | -84.54033 | 30178 ft | 360 kts | 269° |
| 2026-05-07 15:09 | 42.43769 | -84.57432 | 30469 ft | 363 kts | 269° |
| 2026-05-07 15:09 | 42.43855 | -84.60859 | 30748 ft | 365 kts | 269° |
| 2026-05-07 15:09 | 42.43939 | -84.64308 | 31043 ft | 368 kts | 269° |
| 2026-05-07 15:09 | 42.44022 | -84.67729 | 31393 ft | 369 kts | 269° |
| 2026-05-07 15:10 | 42.44105 | -84.71223 | 31675 ft | 372 kts | 269° |
| 2026-05-07 15:10 | 42.44188 | -84.74714 | 32066 ft | 371 kts | 270° |
| 2026-05-07 15:10 | 42.44270 | -84.78202 | 32451 ft | 371 kts | 270° |
| 2026-05-07 15:10 | 42.44351 | -84.81690 | 32817 ft | 371 kts | 270° |
| 2026-05-07 15:11 | 42.44430 | -84.85175 | 33184 ft | 370 kts | 270° |
| 2026-05-07 15:11 | 42.44509 | -84.88655 | 33541 ft | 370 kts | 270° |
| 2026-05-07 15:11 | 42.44586 | -84.92139 | 33898 ft | 370 kts | 270° |
| 2026-05-07 15:11 | 42.44662 | -84.95619 | 34194 ft | 370 kts | 270° |
| 2026-05-07 15:12 | 42.44736 | -84.99057 | 34439 ft | 371 kts | 270° |
| 2026-05-07 15:12 | 42.44811 | -85.02547 | 34670 ft | 371 kts | 270° |
| 2026-05-07 15:12 | 42.44885 | -85.06044 | 34916 ft | 373 kts | 270° |
| 2026-05-07 15:12 | 42.44959 | -85.09563 | 35099 ft | 374 kts | 270° |
| 2026-05-07 15:13 | 42.45031 | -85.13091 | 35329 ft | 375 kts | 270° |
| 2026-05-07 15:13 | 42.45103 | -85.16620 | 35550 ft | 376 kts | 270° |
| 2026-05-07 15:13 | 42.45174 | -85.20159 | 35766 ft | 376 kts | 270° |
| 2026-05-07 15:13 | 42.45244 | -85.23704 | 35978 ft | 377 kts | 270° |
| 2026-05-07 15:14 | 42.45312 | -85.27252 | 36187 ft | 378 kts | 270° |
| 2026-05-07 15:14 | 42.45379 | -85.30762 | 36386 ft | 378 kts | 270° |
| 2026-05-07 15:14 | 42.45446 | -85.34328 | 36594 ft | 379 kts | 270° |
| 2026-05-07 15:14 | 42.45512 | -85.37894 | 36785 ft | 379 kts | 269° |
| 2026-05-07 15:15 | 42.45576 | -85.41467 | 36980 ft | 380 kts | 269° |
| 2026-05-07 15:15 | 42.45640 | -85.45049 | 37136 ft | 381 kts | 269° |
| 2026-05-07 15:15 | 42.45703 | -85.48640 | 37304 ft | 382 kts | 269° |
| 2026-05-07 15:15 | 42.45765 | -85.52238 | 37488 ft | 382 kts | 269° |
| 2026-05-07 15:16 | 42.45826 | -85.55842 | 37667 ft | 383 kts | 269° |
| 2026-05-07 15:16 | 42.45885 | -85.59447 | 37836 ft | 383 kts | 269° |
| 2026-05-07 15:16 | 42.45943 | -85.63012 | 38004 ft | 384 kts | 269° |
| 2026-05-07 15:16 | 42.46001 | -85.66625 | 38042 ft | 384 kts | 269° |
| 2026-05-07 15:17 | 42.46113 | -85.73843 | 38039 ft | 383 kts | 269° |
| 2026-05-07 15:17 | 42.46219 | -85.81052 | 38045 ft | 383 kts | 269° |
| 2026-05-07 15:18 | 42.46321 | -85.88258 | 38054 ft | 383 kts | 269° |
| 2026-05-07 15:18 | 42.46419 | -85.95426 | 38051 ft | 383 kts | 269° |
| 2026-05-07 15:19 | 42.46511 | -86.02589 | 38052 ft | 383 kts | 269° |
| 2026-05-07 15:19 | 42.46251 | -86.09773 | 38052 ft | 382 kts | 262° |
| 2026-05-07 15:20 | 42.45115 | -86.16784 | 38047 ft | 382 kts | 253° |
| 2026-05-07 15:20 | 42.43159 | -86.23504 | 38054 ft | 387 kts | 248° |
| 2026-05-07 15:21 | 42.41019 | -86.30153 | 38064 ft | 387 kts | 249° |
| 2026-05-07 15:21 | 42.38873 | -86.36828 | 38063 ft | 387 kts | 249° |
| 2026-05-07 15:22 | 42.36718 | -86.43501 | 38063 ft | 387 kts | 249° |
| 2026-05-07 15:22 | 42.34557 | -86.50162 | 38066 ft | 386 kts | 249° |
| 2026-05-07 15:23 | 42.32419 | -86.56737 | 38069 ft | 385 kts | 249° |
| 2026-05-07 15:23 | 42.30246 | -86.63405 | 38069 ft | 389 kts | 249° |
| 2026-05-07 15:24 | 42.28067 | -86.70073 | 38069 ft | 388 kts | 249° |
| 2026-05-07 15:24 | 42.25884 | -86.76735 | 38070 ft | 388 kts | 249° |
| 2026-05-07 15:25 | 42.23696 | -86.83400 | 38068 ft | 388 kts | 249° |
| 2026-05-07 15:25 | 42.21520 | -86.90009 | 38072 ft | 388 kts | 248° |
| 2026-05-07 15:26 | 42.19323 | -86.96667 | 38066 ft | 389 kts | 249° |
| 2026-05-07 15:26 | 42.17120 | -87.03326 | 38067 ft | 389 kts | 249° |
| 2026-05-07 15:27 | 42.14914 | -87.09978 | 38065 ft | 387 kts | 249° |
| 2026-05-07 15:27 | 42.12716 | -87.16591 | 38067 ft | 387 kts | 249° |
| 2026-05-07 15:28 | 42.10527 | -87.23160 | 38067 ft | 387 kts | 249° |
| 2026-05-07 15:28 | 42.08320 | -87.29769 | 38067 ft | 387 kts | 249° |
| 2026-05-07 15:29 | 42.06106 | -87.36380 | 38062 ft | 389 kts | 249° |
| 2026-05-07 15:29 | 42.03870 | -87.43042 | 38062 ft | 390 kts | 249° |
| 2026-05-07 15:30 | 42.01656 | -87.49622 | 38062 ft | 388 kts | 249° |
| 2026-05-07 15:30 | 41.99426 | -87.56235 | 38059 ft | 389 kts | 249° |
| 2026-05-07 15:31 | 41.97188 | -87.62855 | 38053 ft | 389 kts | 249° |
| 2026-05-07 15:31 | 41.94953 | -87.69448 | 38047 ft | 385 kts | 249° |
| 2026-05-07 15:32 | 41.92746 | -87.75942 | 38048 ft | 385 kts | 249° |
| 2026-05-07 15:32 | 41.90506 | -87.82528 | 38041 ft | 389 kts | 249° |
| 2026-05-07 15:33 | 41.88256 | -87.89119 | 38037 ft | 388 kts | 249° |
| 2026-05-07 15:33 | 41.86005 | -87.95697 | 38048 ft | 388 kts | 249° |
| 2026-05-07 15:34 | 41.83749 | -88.02277 | 38050 ft | 388 kts | 249° |
| 2026-05-07 15:34 | 41.81506 | -88.08801 | 38055 ft | 388 kts | 249° |
| 2026-05-07 15:35 | 41.79244 | -88.15366 | 38030 ft | 388 kts | 249° |
| 2026-05-07 15:35 | 41.76977 | -88.21931 | 38035 ft | 388 kts | 249° |
| 2026-05-07 15:36 | 41.74709 | -88.28481 | 38038 ft | 387 kts | 249° |
| 2026-05-07 15:36 | 41.72455 | -88.34979 | 38037 ft | 388 kts | 249° |
| 2026-05-07 15:37 | 41.70180 | -88.41521 | 38039 ft | 388 kts | 249° |
| 2026-05-07 15:37 | 41.67911 | -88.48028 | 38027 ft | 388 kts | 249° |
| 2026-05-07 15:38 | 41.65629 | -88.54557 | 38041 ft | 387 kts | 249° |
| 2026-05-07 15:38 | 41.63361 | -88.61033 | 38041 ft | 387 kts | 249° |
| 2026-05-07 15:39 | 41.61076 | -88.67543 | 38039 ft | 387 kts | 249° |
| 2026-05-07 15:39 | 41.58801 | -88.74010 | 38042 ft | 387 kts | 249° |
| 2026-05-07 15:40 | 41.56496 | -88.80545 | 38035 ft | 387 kts | 249° |
| 2026-05-07 15:40 | 41.54208 | -88.87014 | 38037 ft | 382 kts | 250° |
| 2026-05-07 15:41 | 41.51963 | -88.93347 | 38032 ft | 380 kts | 250° |
| 2026-05-07 15:41 | 41.49698 | -88.99734 | 38035 ft | 381 kts | 250° |
| 2026-05-07 15:42 | 41.47429 | -89.06110 | 38035 ft | 380 kts | 249° |
| 2026-05-07 15:42 | 41.45157 | -89.12482 | 38026 ft | 381 kts | 249° |
| 2026-05-07 15:43 | 41.42897 | -89.18803 | 38027 ft | 380 kts | 249° |
| 2026-05-07 15:43 | 41.40617 | -89.25166 | 38001 ft | 380 kts | 249° |
| 2026-05-07 15:44 | 41.38336 | -89.31519 | 38007 ft | 380 kts | 249° |
| 2026-05-07 15:44 | 41.36048 | -89.37878 | 38010 ft | 381 kts | 249° |
| 2026-05-07 15:45 | 41.33768 | -89.44195 | 38008 ft | 381 kts | 250° |
| 2026-05-07 15:45 | 41.31472 | -89.50548 | 38010 ft | 382 kts | 250° |
| 2026-05-07 15:46 | 41.28009 | -89.60105 | 38011 ft | 383 kts | 250° |
| 2026-05-07 15:47 | 41.25691 | -89.66483 | 38021 ft | 384 kts | 250° |
| 2026-05-07 15:47 | 41.23378 | -89.72830 | 38019 ft | 385 kts | 250° |
| 2026-05-07 15:48 | 41.21043 | -89.79226 | 38027 ft | 385 kts | 250° |
| 2026-05-07 15:48 | 41.18704 | -89.85615 | 38012 ft | 383 kts | 250° |
| 2026-05-07 15:49 | 41.16374 | -89.91972 | 38011 ft | 383 kts | 250° |
| 2026-05-07 15:49 | 41.14041 | -89.98329 | 38012 ft | 383 kts | 250° |
| 2026-05-07 15:50 | 41.11718 | -90.04649 | 38008 ft | 384 kts | 250° |
| 2026-05-07 15:50 | 41.09361 | -90.10995 | 38014 ft | 383 kts | 249° |
| 2026-05-07 15:51 | 41.07002 | -90.17330 | 38015 ft | 383 kts | 249° |
| 2026-05-07 15:51 | 41.04650 | -90.23650 | 38016 ft | 382 kts | 249° |
| 2026-05-07 15:52 | 41.02313 | -90.29919 | 38021 ft | 382 kts | 249° |
| 2026-05-07 15:52 | 40.99954 | -90.36231 | 38027 ft | 382 kts | 249° |
| 2026-05-07 15:53 | 40.97599 | -90.42514 | 38034 ft | 379 kts | 250° |
| 2026-05-07 15:53 | 40.95251 | -90.48767 | 38036 ft | 379 kts | 250° |
| 2026-05-07 15:54 | 40.92917 | -90.54975 | 38036 ft | 380 kts | 250° |
| 2026-05-07 15:54 | 40.90563 | -90.61216 | 37992 ft | 377 kts | 249° |
| 2026-05-07 15:55 | 40.88256 | -90.67310 | 38027 ft | 369 kts | 250° |
| 2026-05-07 15:55 | 40.85952 | -90.73408 | 38022 ft | 372 kts | 250° |
| 2026-05-07 15:56 | 40.83655 | -90.79461 | 38015 ft | 370 kts | 250° |
| 2026-05-07 15:56 | 40.81350 | -90.85525 | 38011 ft | 370 kts | 250° |
| 2026-05-07 15:57 | 40.79038 | -90.91595 | 38010 ft | 370 kts | 250° |
| 2026-05-07 15:57 | 40.76721 | -90.97663 | 38015 ft | 370 kts | 250° |
| 2026-05-07 15:58 | 40.74400 | -91.03729 | 38018 ft | 370 kts | 250° |
| 2026-05-07 15:58 | 40.72093 | -91.09748 | 38020 ft | 370 kts | 249° |
| 2026-05-07 15:59 | 40.69767 | -91.15800 | 38001 ft | 370 kts | 250° |
| 2026-05-07 15:59 | 40.67450 | -91.21817 | 38017 ft | 367 kts | 250° |
| 2026-05-07 16:00 | 40.65134 | -91.27825 | 38013 ft | 368 kts | 250° |
| 2026-05-07 16:00 | 40.62832 | -91.33779 | 38018 ft | 368 kts | 250° |
| 2026-05-07 16:01 | 40.60509 | -91.39778 | 38021 ft | 368 kts | 250° |
| 2026-05-07 16:01 | 40.58182 | -91.45775 | 38029 ft | 368 kts | 249° |
| 2026-05-07 16:02 | 40.55850 | -91.51771 | 38029 ft | 368 kts | 249° |
| 2026-05-07 16:02 | 40.53531 | -91.57722 | 38024 ft | 368 kts | 249° |
| 2026-05-07 16:03 | 40.51194 | -91.63708 | 38022 ft | 368 kts | 249° |
| 2026-05-07 16:03 | 40.48850 | -91.69699 | 38024 ft | 369 kts | 249° |
| 2026-05-07 16:04 | 40.46501 | -91.75691 | 38023 ft | 369 kts | 249° |
| 2026-05-07 16:04 | 40.44151 | -91.81675 | 38019 ft | 369 kts | 249° |
| 2026-05-07 16:05 | 40.41814 | -91.87612 | 38023 ft | 369 kts | 249° |
| 2026-05-07 16:05 | 40.39456 | -91.93592 | 38020 ft | 369 kts | 249° |
| 2026-05-07 16:06 | 40.37099 | -91.99559 | 38022 ft | 369 kts | 249° |
| 2026-05-07 16:06 | 40.34729 | -92.05545 | 38030 ft | 370 kts | 249° |
| 2026-05-07 16:07 | 40.32354 | -92.11530 | 38033 ft | 370 kts | 249° |
| 2026-05-07 16:07 | 40.29973 | -92.17520 | 38038 ft | 371 kts | 249° |
| 2026-05-07 16:08 | 40.27605 | -92.23463 | 38046 ft | 371 kts | 249° |
| 2026-05-07 16:08 | 40.25215 | -92.29452 | 38048 ft | 371 kts | 249° |
| 2026-05-07 16:09 | 40.22820 | -92.35439 | 37983 ft | 371 kts | 248° |
| 2026-05-07 16:09 | 40.20449 | -92.41354 | 38042 ft | 365 kts | 248° |
| 2026-05-07 16:10 | 40.18082 | -92.47252 | 37863 ft | 367 kts | 248° |
| 2026-05-07 16:10 | 40.16892 | -92.50212 | 37598 ft | 367 kts | 248° |
| 2026-05-07 16:10 | 40.15721 | -92.53124 | 37340 ft | 367 kts | 248° |
| 2026-05-07 16:10 | 40.14533 | -92.56074 | 37080 ft | 368 kts | 248° |
| 2026-05-07 16:11 | 40.13340 | -92.59039 | 36822 ft | 369 kts | 248° |
| 2026-05-07 16:11 | 40.12165 | -92.62021 | 36569 ft | 369 kts | 249° |
| 2026-05-07 16:11 | 40.11026 | -92.65025 | 36320 ft | 369 kts | 249° |
| 2026-05-07 16:11 | 40.09891 | -92.68046 | 35789 ft | 372 kts | 249° |
| 2026-05-07 16:12 | 40.08736 | -92.71116 | 34929 ft | 380 kts | 249° |
| 2026-05-07 16:12 | 40.07564 | -92.74210 | 34173 ft | 382 kts | 249° |
| 2026-05-07 16:12 | 40.06379 | -92.77321 | 33383 ft | 383 kts | 249° |
| 2026-05-07 16:12 | 40.05207 | -92.80387 | 32615 ft | 383 kts | 249° |
| 2026-05-07 16:13 | 40.04017 | -92.83494 | 31826 ft | 383 kts | 249° |
| 2026-05-07 16:13 | 40.02826 | -92.86605 | 31103 ft | 383 kts | 249° |
| 2026-05-07 16:13 | 40.01643 | -92.89685 | 30602 ft | 377 kts | 250° |
| 2026-05-07 16:13 | 40.00473 | -92.92729 | 30018 ft | 374 kts | 250° |
| 2026-05-07 16:14 | 39.99316 | -92.95742 | 29429 ft | 369 kts | 250° |
| 2026-05-07 16:14 | 39.98179 | -92.98701 | 28892 ft | 362 kts | 249° |
| 2026-05-07 16:14 | 39.97056 | -93.01618 | 28361 ft | 357 kts | 250° |
| 2026-05-07 16:14 | 39.95949 | -93.04491 | 27828 ft | 353 kts | 250° |
| 2026-05-07 16:15 | 39.94869 | -93.07292 | 27325 ft | 349 kts | 250° |
| 2026-05-07 16:15 | 39.93756 | -93.10199 | 26796 ft | 371 kts | 250° |
| 2026-05-07 16:15 | 39.92583 | -93.13267 | 26232 ft | 384 kts | 249° |
| 2026-05-07 16:15 | 39.91377 | -93.16389 | 25661 ft | 386 kts | 249° |
| 2026-05-07 16:16 | 39.90164 | -93.19508 | 25092 ft | 384 kts | 249° |
| 2026-05-07 16:16 | 39.88963 | -93.22593 | 24525 ft | 380 kts | 249° |
| 2026-05-07 16:16 | 39.87782 | -93.25626 | 23954 ft | 376 kts | 249° |
| 2026-05-07 16:16 | 39.86607 | -93.28645 | 23325 ft | 372 kts | 249° |
| 2026-05-07 16:17 | 39.85450 | -93.31619 | 22804 ft | 365 kts | 250° |
| 2026-05-07 16:17 | 39.84328 | -93.34497 | 22266 ft | 359 kts | 250° |
| 2026-05-07 16:17 | 39.83210 | -93.37369 | 21721 ft | 353 kts | 250° |
| 2026-05-07 16:17 | 39.82095 | -93.40185 | 21194 ft | 348 kts | 249° |
| 2026-05-07 16:18 | 39.80984 | -93.42962 | 20669 ft | 344 kts | 250° |
| 2026-05-07 16:18 | 39.79885 | -93.45700 | 20158 ft | 339 kts | 250° |
| 2026-05-07 16:18 | 39.78802 | -93.48400 | 19638 ft | 335 kts | 250° |
| 2026-05-07 16:18 | 39.77730 | -93.51074 | 19124 ft | 332 kts | 250° |
| 2026-05-07 16:19 | 39.76669 | -93.53724 | 18616 ft | 329 kts | 250° |
| 2026-05-07 16:19 | 39.75616 | -93.56351 | 18078 ft | 326 kts | 250° |
| 2026-05-07 16:19 | 39.74571 | -93.58961 | 17400 ft | 326 kts | 250° |
| 2026-05-07 16:19 | 39.73541 | -93.61532 | 16977 ft | 327 kts | 249° |
| 2026-05-07 16:20 | 39.72480 | -93.64186 | 16483 ft | 334 kts | 249° |
| 2026-05-07 16:20 | 39.71404 | -93.66867 | 15968 ft | 335 kts | 249° |
| 2026-05-07 16:20 | 39.70326 | -93.69538 | 15445 ft | 332 kts | 249° |
| 2026-05-07 16:20 | 39.69259 | -93.72177 | 14947 ft | 329 kts | 248° |
| 2026-05-07 16:21 | 39.68204 | -93.74790 | 14440 ft | 326 kts | 248° |
| 2026-05-07 16:21 | 39.67158 | -93.77382 | 13948 ft | 323 kts | 248° |
| 2026-05-07 16:21 | 39.66120 | -93.79952 | 13416 ft | 319 kts | 248° |
| 2026-05-07 16:21 | 39.65110 | -93.82456 | 12930 ft | 315 kts | 247° |
| 2026-05-07 16:22 | 39.64101 | -93.84955 | 12463 ft | 311 kts | 247° |
| 2026-05-07 16:22 | 39.63102 | -93.87426 | 12104 ft | 309 kts | 246° |
| 2026-05-07 16:22 | 39.62119 | -93.89966 | 11979 ft | 318 kts | 248° |
| 2026-05-07 16:22 | 39.61183 | -93.92563 | 11740 ft | 318 kts | 249° |
| 2026-05-07 16:23 | 39.60263 | -93.95151 | 11531 ft | 310 kts | 249° |
| 2026-05-07 16:23 | 39.59381 | -93.97609 | 11356 ft | 291 kts | 249° |
| 2026-05-07 16:23 | 39.58548 | -93.99907 | 11119 ft | 274 kts | 249° |
| 2026-05-07 16:23 | 39.57744 | -94.02125 | 10587 ft | 272 kts | 248° |
| 2026-05-07 16:24 | 39.56942 | -94.04338 | 10192 ft | 270 kts | 247° |
| 2026-05-07 16:24 | 39.56157 | -94.06500 | 9835 ft | 267 kts | 247° |
| 2026-05-07 16:24 | 39.55374 | -94.08644 | 9592 ft | 260 kts | 247° |
| 2026-05-07 16:24 | 39.54597 | -94.10769 | 9352 ft | 263 kts | 247° |
| 2026-05-07 16:25 | 39.53836 | -94.12905 | 9112 ft | 259 kts | 250° |
| 2026-05-07 16:25 | 39.53310 | -94.15122 | 8878 ft | 257 kts | 259° |
| 2026-05-07 16:25 | 39.53071 | -94.17404 | 8644 ft | 255 kts | 265° |
| 2026-05-07 16:25 | 39.52905 | -94.19687 | 8403 ft | 256 kts | 264° |
| 2026-05-07 16:26 | 39.52726 | -94.21976 | 8175 ft | 255 kts | 264° |
| 2026-05-07 16:26 | 39.52545 | -94.24219 | 7943 ft | 253 kts | 264° |
| 2026-05-07 16:26 | 39.52361 | -94.26491 | 7712 ft | 254 kts | 264° |
| 2026-05-07 16:26 | 39.52235 | -94.28024 | 7554 ft | 252 kts | 264° |
| 2026-05-07 16:27 | 39.51992 | -94.31004 | 7245 ft | 252 kts | 264° |
| 2026-05-07 16:27 | 39.51811 | -94.33245 | 7017 ft | 249 kts | 264° |
| 2026-05-07 16:27 | 39.51631 | -94.35471 | 6791 ft | 248 kts | 264° |
| 2026-05-07 16:27 | 39.51449 | -94.37705 | 6519 ft | 249 kts | 263° |
| 2026-05-07 16:28 | 39.51266 | -94.39931 | 6279 ft | 248 kts | 263° |
| 2026-05-07 16:28 | 39.51050 | -94.42137 | 6047 ft | 245 kts | 262° |
| 2026-05-07 16:28 | 39.50824 | -94.44270 | 5830 ft | 241 kts | 262° |
| 2026-05-07 16:28 | 39.50591 | -94.46443 | 5600 ft | 245 kts | 261° |
| 2026-05-07 16:29 | 39.50364 | -94.48596 | 5498 ft | 237 kts | 261° |
| 2026-05-07 16:29 | 39.50149 | -94.50664 | 5417 ft | 226 kts | 262° |
| 2026-05-07 16:29 | 39.49948 | -94.52616 | 5303 ft | 212 kts | 262° |
| 2026-05-07 16:29 | 39.49757 | -94.54462 | 5040 ft | 204 kts | 261° |
| 2026-05-07 16:30 | 39.49567 | -94.56272 | 4759 ft | 202 kts | 261° |
| 2026-05-07 16:30 | 39.49381 | -94.58064 | 4519 ft | 201 kts | 261° |
| 2026-05-07 16:30 | 39.49198 | -94.59858 | 4234 ft | 201 kts | 261° |
| 2026-05-07 16:30 | 39.48984 | -94.61641 | 4013 ft | 198 kts | 252° |
| 2026-05-07 16:31 | 39.48275 | -94.63118 | 3876 ft | 195 kts | 226° |
| 2026-05-07 16:31 | 39.47176 | -94.64118 | 3672 ft | 197 kts | 217° |
| 2026-05-07 16:31 | 39.46054 | -94.65066 | 3570 ft | 186 kts | 218° |
| 2026-05-07 16:31 | 39.45007 | -94.65973 | 3480 ft | 177 kts | 218° |
| 2026-05-07 16:32 | 39.43992 | -94.66833 | 3253 ft | 172 kts | 217° |
| 2026-05-07 16:32 | 39.43012 | -94.67657 | 3250 ft | 172 kts | 218° |
| 2026-05-07 16:32 | 39.42010 | -94.68520 | 3246 ft | 169 kts | 218° |
| 2026-05-07 16:32 | 39.41042 | -94.69266 | 3134 ft | 156 kts | 210° |
| 2026-05-07 16:33 | 39.40070 | -94.69730 | 3043 ft | 142 kts | 202° |
| 2026-05-07 16:33 | 39.39139 | -94.70031 | 2861 ft | 136 kts | 199° |
| 2026-05-07 16:33 | 39.38220 | -94.70298 | 2516 ft | 134 kts | 199° |
| 2026-05-07 16:33 | 39.37290 | -94.70578 | 2222 ft | 142 kts | 199° |
| 2026-05-07 16:34 | 39.36319 | -94.70862 | 1909 ft | 143 kts | 197° |
| 2026-05-07 16:34 | 39.35374 | -94.71145 | 1706 ft | 133 kts | 197° |
| 2026-05-07 16:34 | 39.34494 | -94.71403 | 1486 ft | 136 kts | 198° |
| 2026-05-07 16:34 | 39.33613 | -94.71664 | 1313 ft | 125 kts | 197° |
| 2026-05-07 16:35 | 39.32781 | -94.71911 | 1165 ft | 123 kts | 199° |
| 2026-05-07 16:35 | 39.31949 | -94.72152 | 1027 ft | 122 kts | 199° |
| 2026-05-07 16:35 | 39.31213 | -94.72383 | 1006 ft | 86 kts | 194° |
| 2026-05-07 16:35 | 39.30826 | -94.72493 | 1007 ft | 28 kts | 193° |
| 2026-05-07 16:36 | 39.30672 | -94.72537 | 1009 ft | 22 kts | 193° |
| 2026-05-07 16:36 | 39.30532 | -94.72566 | 1012 ft | 20 kts | 185° |
| 2026-05-07 16:36 | 39.30396 | -94.72547 | 1013 ft | 19 kts | 162° |
| 2026-05-07 16:36 | 39.30332 | -94.72511 | 1015 ft | 2 kts | 158° |
| 2026-05-07 16:37 | 39.30309 | -94.72496 | 1015 ft | 5 kts | 147° |
| 2026-05-07 16:37 | 39.30280 | -94.72445 | 1015 ft | 9 kts | 111° |
| 2026-05-07 16:37 | 39.30236 | -94.72387 | 1016 ft | 10 kts | 151° |
| 2026-05-07 16:37 | 39.30186 | -94.72317 | 1016 ft | 9 kts | 157° |
| 2026-05-07 16:38 | 39.30124 | -94.72326 | 1017 ft | 10 kts | 191° |
| 2026-05-07 16:38 | 39.30051 | -94.72346 | 1018 ft | 11 kts | 192° |
| 2026-05-07 16:38 | 39.29970 | -94.72369 | 1019 ft | 12 kts | 192° |
| 2026-05-07 16:38 | 39.29884 | -94.72394 | 1020 ft | 13 kts | 193° |
| 2026-05-07 16:39 | 39.29792 | -94.72421 | 1021 ft | 14 kts | 193° |
| 2026-05-07 16:39 | 39.29697 | -94.72450 | 1022 ft | 12 kts | 193° |
| 2026-05-07 16:39 | 39.29628 | -94.72471 | 1023 ft | 10 kts | 192° |